^^
Station Historical Data
Daily Summary for April 3, 2019 Units:  English    Metric   Both
« Previous Day
Next Day »
Daily Weekly Monthly Yearly Custom
  High: Low: Average:
Temperature: 43.6 °F 22.7 °F 32.9 °F
Dew Point: 27.9 °F 18.1 °F 23.3 °F
Humidity: 93% 43% 70%
Wind Speed: 19.0mph 0.0mph 8.7mph
Wind Gust: 24.0mph - -
Wind- - SE
Pressure: 30.15 in 29.96 in -
Precipitation: 0.00 in    
Historical Graphs
 
 
Tabular Data for April 3, 2019
Time Temperature Dew Point Pressure Wind Wind Speed Wind Gust Humidity Rainfall Rate (Hourly) solar Conditions
00:04 32.5 °F 23.1 °F 29.96 in West 2.0 mph 4.0 mph 68% 0.00 in 0.00 W/m2
00:09 32.3 °F 23.3 °F 29.96 in NNW 6.0 mph 7.0 mph 69% 0.00 in 0.00 W/m2
00:14 32.0 °F 23.3 °F 29.97 in North 7.0 mph 9.0 mph 70% 0.00 in 0.00 W/m2
00:19 31.8 °F 23.8 °F 29.97 in North 9.0 mph 13.0 mph 72% 0.00 in 0.00 W/m2
00:24 31.6 °F 24.3 °F 29.97 in North 8.0 mph 13.0 mph 74% 0.00 in 0.00 W/m2
00:29 31.2 °F 24.2 °F 29.98 in NNE 11.0 mph 13.0 mph 75% 0.00 in 0.00 W/m2
00:34 30.7 °F 24.7 °F 29.98 in NNE 9.0 mph 13.0 mph 78% 0.00 in 0.00 W/m2
00:39 30.3 °F 24.6 °F 29.98 in NNE 10.0 mph 13.0 mph 79% 0.00 in 0.00 W/m2
00:44 30.0 °F 24.6 °F 29.98 in NNE 12.0 mph 14.0 mph 80% 0.00 in 0.00 W/m2
00:49 29.9 °F 25.1 °F 29.98 in NNE 9.0 mph 14.0 mph 82% 0.00 in 0.00 W/m2
00:54 29.7 °F 24.9 °F 29.98 in NE 7.0 mph 13.0 mph 82% 0.00 in 0.00 W/m2
00:59 29.4 °F 24.6 °F 29.98 in NE 5.0 mph 11.0 mph 82% 0.00 in 0.00 W/m2
01:04 29.2 °F 24.7 °F 29.98 in NNE 7.0 mph 9.0 mph 83% 0.00 in 0.00 W/m2
01:09 29.2 °F 25.3 °F 29.99 in NNE 7.0 mph 9.0 mph 85% 0.00 in 0.00 W/m2
01:14 29.2 °F 25.3 °F 29.99 in NNE 3.0 mph 7.0 mph 85% 0.00 in 0.00 W/m2
01:19 29.0 °F 25.1 °F 29.99 in North 6.0 mph 6.0 mph 85% 0.00 in 0.00 W/m2
01:24 28.9 °F 25.2 °F 29.99 in NNW 5.0 mph 6.0 mph 86% 0.00 in 0.00 W/m2
01:29 29.3 °F 25.9 °F 29.99 in NNW 5.0 mph 9.0 mph 87% 0.00 in 0.00 W/m2
01:34 29.4 °F 26.0 °F 29.99 in NNW 5.0 mph 9.0 mph 87% 0.00 in 0.00 W/m2
01:39 29.3 °F 25.9 °F 29.99 in NNW 3.0 mph 6.0 mph 87% 0.00 in 0.00 W/m2
01:44 29.1 °F 25.7 °F 30.00 in NNW 3.0 mph 5.0 mph 87% 0.00 in 0.00 W/m2
01:49 28.6 °F 24.9 °F 30.00 in NNW 2.0 mph 5.0 mph 86% 0.00 in 0.00 W/m2
01:54 27.8 °F 24.2 °F 30.01 in NNW 3.0 mph 4.0 mph 86% 0.00 in 0.00 W/m2
01:59 27.5 °F 24.1 °F 30.01 in NNW 4.0 mph 4.0 mph 87% 0.00 in 0.00 W/m2
02:04 27.3 °F 24.2 °F 30.01 in NNW 4.0 mph 5.0 mph 88% 0.00 in 0.00 W/m2
02:09 27.0 °F 23.9 °F 30.01 in NNW 4.0 mph 5.0 mph 88% 0.00 in 0.00 W/m2
02:14 26.9 °F 24.1 °F 30.01 in NNW 3.0 mph 5.0 mph 89% 0.00 in 0.00 W/m2
02:19 26.9 °F 24.1 °F 30.01 in NNW 3.0 mph 4.0 mph 89% 0.00 in 0.00 W/m2
02:24 26.9 °F 24.1 °F 30.01 in NNW 3.0 mph 4.0 mph 89% 0.00 in 0.00 W/m2
02:29 26.9 °F 24.1 °F 30.01 in NNW 3.0 mph 5.0 mph 89% 0.00 in 0.00 W/m2
02:34 26.9 °F 24.4 °F 30.02 in NNW 3.0 mph 5.0 mph 90% 0.00 in 0.00 W/m2
02:39 26.9 °F 24.4 °F 30.02 in NNW 3.0 mph 5.0 mph 90% 0.00 in 0.00 W/m2
02:44 27.0 °F 24.5 °F 30.02 in NNW 3.0 mph 5.0 mph 90% 0.00 in 0.00 W/m2
02:49 27.0 °F 24.5 °F 30.02 in NNW 3.0 mph 5.0 mph 90% 0.00 in 0.00 W/m2
02:54 27.0 °F 24.5 °F 30.02 in NNW 3.0 mph 5.0 mph 90% 0.00 in 0.00 W/m2
02:59 26.9 °F 24.4 °F 30.02 in NW 3.0 mph 5.0 mph 90% 0.00 in 0.00 W/m2
03:04 26.9 °F 24.4 °F 30.02 in NW 3.0 mph 5.0 mph 90% 0.00 in 0.00 W/m2
03:09 27.0 °F 24.5 °F 30.02 in NW 3.0 mph 5.0 mph 90% 0.00 in 0.00 W/m2
03:14 26.9 °F 24.4 °F 30.03 in NW 3.0 mph 4.0 mph 90% 0.00 in 0.00 W/m2
03:19 26.3 °F 23.5 °F 30.03 in WSW 4.0 mph 5.0 mph 89% 0.00 in 0.00 W/m2
03:24 25.8 °F 23.3 °F 30.03 in West 2.0 mph 5.0 mph 90% 0.00 in 0.00 W/m2
03:29 25.6 °F 23.1 °F 30.03 in NW 4.0 mph 5.0 mph 90% 0.00 in 0.00 W/m2
03:34 25.6 °F 23.3 °F 30.02 in NW 4.0 mph 5.0 mph 91% 0.00 in 0.00 W/m2
03:39 25.6 °F 23.3 °F 30.03 in NW 4.0 mph 5.0 mph 91% 0.00 in 0.00 W/m2
03:44 25.6 °F 23.3 °F 30.03 in NNW 4.0 mph 5.0 mph 91% 0.00 in 0.00 W/m2
03:49 25.5 °F 23.2 °F 30.02 in NNW 4.0 mph 6.0 mph 91% 0.00 in 0.00 W/m2
03:54 25.3 °F 23.0 °F 30.02 in NNW 5.0 mph 7.0 mph 91% 0.00 in 0.00 W/m2
03:59 25.3 °F 23.0 °F 30.02 in NNW 5.0 mph 7.0 mph 91% 0.00 in 0.00 W/m2
04:04 25.4 °F 23.4 °F 30.03 in North 5.0 mph 6.0 mph 92% 0.00 in 0.00 W/m2
04:09 25.5 °F 23.5 °F 30.03 in NNW 5.0 mph 6.0 mph 92% 0.00 in 0.00 W/m2
04:14 25.6 °F 23.6 °F 30.04 in NNW 3.0 mph 6.0 mph 92% 0.00 in 0.00 W/m2
04:19 25.6 °F 23.6 °F 30.04 in NNW 2.0 mph 5.0 mph 92% 0.00 in 0.00 W/m2
04:24 25.5 °F 23.5 °F 30.04 in Calm   3.0 mph 92% 0.00 in 0.00 W/m2
04:29 25.4 °F 23.4 °F 30.04 in North 5.0 mph 5.0 mph 92% 0.00 in 0.00 W/m2
04:34 25.4 °F 23.4 °F 30.04 in North 3.0 mph 6.0 mph 92% 0.00 in 0.00 W/m2
04:39 25.4 °F 23.4 °F 30.05 in North 3.0 mph 6.0 mph 92% 0.00 in 0.00 W/m2
04:44 25.4 °F 23.4 °F 30.05 in North 3.0 mph 5.0 mph 92% 0.00 in 0.00 W/m2
04:49 25.5 °F 23.5 °F 30.05 in North 2.0 mph 4.0 mph 92% 0.00 in 0.00 W/m2
04:54 25.4 °F 23.4 °F 30.05 in North 2.0 mph 3.0 mph 92% 0.00 in 0.00 W/m2
04:59 25.3 °F 23.3 °F 30.05 in North 4.0 mph 5.0 mph 92% 0.00 in 0.00 W/m2
05:04 25.0 °F 23.0 °F 30.06 in NE 3.0 mph 6.0 mph 92% 0.00 in 0.00 W/m2
05:09 24.9 °F 22.9 °F 30.05 in NE 5.0 mph 6.0 mph 92% 0.00 in 0.00 W/m2
05:14 24.9 °F 22.9 °F 30.05 in NE 5.0 mph 6.0 mph 92% 0.00 in 0.00 W/m2
05:19 24.7 °F 22.7 °F 30.05 in NE 6.0 mph 6.0 mph 92% 0.00 in 0.00 W/m2
05:24 24.7 °F 22.7 °F 30.05 in NE 4.0 mph 6.0 mph 92% 0.00 in 0.00 W/m2
05:29 24.6 °F 22.6 °F 30.05 in NE 6.0 mph 7.0 mph 92% 0.00 in 0.00 W/m2
05:34 24.4 °F 22.4 °F 30.05 in NE 5.0 mph 7.0 mph 92% 0.00 in 0.00 W/m2
05:39 24.5 °F 22.5 °F 30.05 in NE 5.0 mph 7.0 mph 92% 0.00 in 0.00 W/m2
05:44 24.5 °F 22.5 °F 30.05 in NE 4.0 mph 6.0 mph 92% 0.00 in 0.00 W/m2
05:49 24.3 °F 22.3 °F 30.05 in NE 4.0 mph 6.0 mph 92% 0.00 in 0.00 W/m2
05:54 24.1 °F 22.1 °F 30.04 in NE 5.0 mph 6.0 mph 92% 0.00 in 0.00 W/m2
05:59 24.0 °F 22.0 °F 30.05 in NE 5.0 mph 6.0 mph 92% 0.00 in 0.00 W/m2
06:04 24.2 °F 22.2 °F 30.05 in NE 4.0 mph 6.0 mph 92% 0.00 in 0.00 W/m2
06:09 24.1 °F 22.1 °F 30.05 in NE 3.0 mph 6.0 mph 92% 0.00 in 0.00 W/m2
06:14 24.1 °F 22.1 °F 30.05 in NE 4.0 mph 5.0 mph 92% 0.00 in 0.00 W/m2
06:19 24.3 °F 22.3 °F 30.05 in NE 4.0 mph 5.0 mph 92% 0.00 in 0.00 W/m2
06:24 24.4 °F 22.7 °F 30.05 in NE 3.0 mph 5.0 mph 93% 0.00 in 0.00 W/m2
06:29 24.3 °F 22.3 °F 30.05 in NE 4.0 mph 5.0 mph 92% 0.00 in 0.00 W/m2
06:34 24.2 °F 22.2 °F 30.06 in NE 3.0 mph 4.0 mph 92% 0.00 in 0.00 W/m2
06:39 24.0 °F 22.0 °F 30.06 in ENE 2.0 mph 5.0 mph 92% 0.00 in 0.00 W/m2
06:44 23.6 °F 21.6 °F 30.07 in ENE 3.0 mph 5.0 mph 92% 0.00 in 0.00 W/m2
06:49 23.5 °F 21.5 °F 30.07 in ENE 4.0 mph 4.0 mph 92% 0.00 in 0.00 W/m2
06:54 23.7 °F 21.7 °F 30.07 in ENE 4.0 mph 4.0 mph 92% 0.00 in 0.00 W/m2
06:59 23.8 °F 21.8 °F 30.07 in ENE 5.0 mph 5.0 mph 92% 0.00 in 0.00 W/m2
07:04 23.8 °F 21.6 °F 30.07 in ENE 5.0 mph 8.0 mph 91% 0.00 in 0.00 W/m2
07:09 23.4 °F 21.2 °F 30.07 in ENE 4.0 mph 8.0 mph 91% 0.00 in 0.00 W/m2
07:14 23.3 °F 21.1 °F 30.07 in ENE 4.0 mph 7.0 mph 91% 0.00 in 0.00 W/m2
07:19 23.4 °F 20.9 °F 30.07 in ENE 4.0 mph 7.0 mph 90% 0.00 in 5.00 W/m2
07:24 23.3 °F 20.8 °F 30.08 in ENE 4.0 mph 7.0 mph 90% 0.00 in 7.00 W/m2
07:29 23.4 °F 20.9 °F 30.09 in ENE 4.0 mph 7.0 mph 90% 0.00 in 11.00 W/m2
07:34 23.6 °F 20.8 °F 30.09 in ENE 4.0 mph 7.0 mph 89% 0.00 in 12.00 W/m2
07:39 23.6 °F 20.6 °F 30.10 in Calm   5.0 mph 88% 0.00 in 14.00 W/m2
07:44 23.3 °F 20.3 °F 30.10 in ENE 1.0 mph 4.0 mph 88% 0.00 in 16.00 W/m2
07:49 23.0 °F 20.0 °F 30.10 in ENE 3.0 mph 4.0 mph 88% 0.00 in 18.00 W/m2
07:54 23.1 °F 20.1 °F 30.10 in ENE 3.0 mph 4.0 mph 88% 0.00 in 21.00 W/m2
07:59 23.2 °F 20.2 °F 30.10 in ENE 2.0 mph 4.0 mph 88% 0.00 in 23.00 W/m2
08:04 23.2 °F 20.2 °F 30.11 in ENE 2.0 mph 4.0 mph 88% 0.00 in 25.00 W/m2
08:09 22.9 °F 19.6 °F 30.11 in ENE 2.0 mph 4.0 mph 87% 0.00 in 26.00 W/m2
08:14 22.7 °F 19.7 °F 30.11 in Calm     88% 0.00 in 26.00 W/m2
08:19 22.8 °F 19.8 °F 30.11 in ENE 1.0 mph 2.0 mph 88% 0.00 in 28.00 W/m2
08:24 23.2 °F 20.4 °F 30.11 in ENE 3.0 mph 3.0 mph 89% 0.00 in 30.00 W/m2
08:29 23.6 °F 21.1 °F 30.11 in ENE 3.0 mph 4.0 mph 90% 0.00 in 114.00 W/m2
08:34 24.9 °F 22.6 °F 30.12 in ESE 2.0 mph 5.0 mph 91% 0.00 in 127.00 W/m2
08:39 25.9 °F 23.4 °F 30.12 in ESE 4.0 mph 5.0 mph 90% 0.00 in 128.00 W/m2
08:44 26.8 °F 24.3 °F 30.12 in East 6.0 mph 8.0 mph 90% 0.00 in 139.00 W/m2
08:49 27.4 °F 24.3 °F 30.12 in East 6.0 mph 8.0 mph 88% 0.00 in 172.00 W/m2
08:54 27.9 °F 24.8 °F 30.12 in East 2.0 mph 8.0 mph 88% 0.00 in 209.00 W/m2
08:59 28.3 °F 24.6 °F 30.12 in East 3.0 mph 9.0 mph 86% 0.00 in 229.00 W/m2
09:04 28.8 °F 25.1 °F 30.12 in East 7.0 mph 9.0 mph 86% 0.00 in 241.00 W/m2
09:09 29.4 °F 25.4 °F 30.12 in ENE 7.0 mph 8.0 mph 85% 0.00 in 260.00 W/m2
09:14 29.7 °F 25.5 °F 30.12 in East 7.0 mph 9.0 mph 84% 0.00 in 276.00 W/m2
09:19 30.2 °F 25.7 °F 30.13 in East 6.0 mph 9.0 mph 83% 0.00 in 297.00 W/m2
09:24 30.5 °F 25.4 °F 30.13 in ENE 7.0 mph 9.0 mph 81% 0.00 in 315.00 W/m2
09:29 30.6 °F 24.9 °F 30.12 in ENE 8.0 mph 11.0 mph 79% 0.00 in 322.00 W/m2
09:34 31.1 °F 25.0 °F 30.13 in East 11.0 mph 11.0 mph 78% 0.00 in 343.00 W/m2
09:39 31.3 °F 24.6 °F 30.13 in ESE 7.0 mph 13.0 mph 76% 0.00 in 367.00 W/m2
09:44 31.7 °F 24.7 °F 30.13 in ENE 10.0 mph 13.0 mph 75% 0.00 in 376.00 W/m2
09:49 31.8 °F 24.1 °F 30.13 in ENE 8.0 mph 13.0 mph 73% 0.00 in 387.00 W/m2
09:54 32.3 °F 23.6 °F 30.13 in East 8.0 mph 13.0 mph 70% 0.00 in 401.00 W/m2
09:59 32.5 °F 22.8 °F 30.13 in East 6.0 mph 13.0 mph 67% 0.00 in 415.00 W/m2
10:04 33.1 °F 23.0 °F 30.14 in East 10.0 mph 11.0 mph 66% 0.00 in 424.00 W/m2
10:09 33.2 °F 22.0 °F 30.14 in East 6.0 mph 11.0 mph 63% 0.00 in 443.00 W/m2
10:14 33.4 °F 21.0 °F 30.13 in East 8.0 mph 11.0 mph 60% 0.00 in 459.00 W/m2
10:19 33.5 °F 21.1 °F 30.14 in East 6.0 mph 13.0 mph 60% 0.00 in 473.00 W/m2
10:24 33.8 °F 21.0 °F 30.13 in East 9.0 mph 14.0 mph 59% 0.00 in 475.00 W/m2
10:29 33.7 °F 20.1 °F 30.14 in ENE 4.0 mph 16.0 mph 57% 0.00 in 476.00 W/m2
10:34 33.8 °F 20.2 °F 30.13 in ENE 7.0 mph 16.0 mph 57% 0.00 in 471.00 W/m2
10:39 33.9 °F 19.4 °F 30.13 in ENE 12.0 mph 14.0 mph 55% 0.00 in 464.00 W/m2
10:44 34.1 °F 19.6 °F 30.14 in ENE 12.0 mph 14.0 mph 55% 0.00 in 450.00 W/m2
10:49 34.1 °F 19.2 °F 30.14 in East 8.0 mph 13.0 mph 54% 0.00 in 448.00 W/m2
10:54 34.6 °F 18.8 °F 30.14 in ESE 8.0 mph 15.0 mph 52% 0.00 in 455.00 W/m2
10:59 34.6 °F 19.6 °F 30.14 in ESE 13.0 mph 15.0 mph 54% 0.00 in 476.00 W/m2
11:04 34.8 °F 19.8 °F 30.14 in ENE 9.0 mph 16.0 mph 54% 0.00 in 490.00 W/m2
11:09 34.8 °F 20.3 °F 30.14 in East 10.0 mph 16.0 mph 55% 0.00 in 459.00 W/m2
11:14 34.6 °F 19.2 °F 30.14 in East 10.0 mph 16.0 mph 53% 0.00 in 485.00 W/m2
11:19 35.0 °F 20.0 °F 30.14 in ENE 10.0 mph 15.0 mph 54% 0.00 in 482.00 W/m2
11:24 35.2 °F 20.6 °F 30.14 in East 9.0 mph 15.0 mph 55% 0.00 in 522.00 W/m2
11:29 35.7 °F 20.7 °F 30.14 in East 8.0 mph 14.0 mph 54% 0.00 in 599.00 W/m2
11:34 36.6 °F 21.5 °F 30.14 in ESE 11.0 mph 14.0 mph 54% 0.00 in 647.00 W/m2
11:39 36.6 °F 20.6 °F 30.14 in ESE 9.0 mph 17.0 mph 52% 0.00 in 663.00 W/m2
11:44 35.9 °F 20.0 °F 30.14 in SE 4.0 mph 17.0 mph 52% 0.00 in 668.00 W/m2
11:49 36.2 °F 21.6 °F 30.14 in SE 7.0 mph 15.0 mph 55% 0.00 in 679.00 W/m2
11:54 36.5 °F 20.1 °F 30.14 in SE 3.0 mph 16.0 mph 51% 0.00 in 682.00 W/m2
11:59 36.7 °F 20.7 °F 30.15 in ESE 11.0 mph 16.0 mph 52% 0.00 in 689.00 W/m2
12:04 36.8 °F 19.9 °F 30.15 in East 16.0 mph 17.0 mph 50% 0.00 in 701.00 W/m2
12:09 36.7 °F 19.3 °F 30.15 in East 9.0 mph 17.0 mph 49% 0.00 in 710.00 W/m2
12:14 36.9 °F 19.0 °F 30.15 in East 11.0 mph 17.0 mph 48% 0.00 in 705.00 W/m2
12:19 36.8 °F 18.4 °F 30.15 in East 15.0 mph 18.0 mph 47% 0.00 in 717.00 W/m2
12:24 37.0 °F 18.1 °F 30.15 in East 8.0 mph 18.0 mph 46% 0.00 in 721.00 W/m2
12:29 37.1 °F 18.2 °F 30.15 in SE 9.0 mph 17.0 mph 46% 0.00 in 740.00 W/m2
12:34 37.3 °F 19.4 °F 30.15 in East 15.0 mph 17.0 mph 48% 0.00 in 742.00 W/m2
12:39 37.5 °F 19.1 °F 30.15 in SE 12.0 mph 17.0 mph 47% 0.00 in 749.00 W/m2
12:44 38.0 °F 20.0 °F 30.15 in ESE 18.0 mph 19.0 mph 48% 0.00 in 759.00 W/m2
12:49 38.1 °F 20.1 °F 30.15 in ESE 13.0 mph 19.0 mph 48% 0.00 in 765.00 W/m2
12:54 37.8 °F 19.3 °F 30.15 in East 19.0 mph 20.0 mph 47% 0.00 in 768.00 W/m2
12:59 37.8 °F 20.8 °F 30.15 in ESE 14.0 mph 20.0 mph 50% 0.00 in 772.00 W/m2
13:04 38.0 °F 20.0 °F 30.15 in SE 14.0 mph 19.0 mph 48% 0.00 in 775.00 W/m2
13:09 38.2 °F 19.2 °F 30.14 in SE 14.0 mph 18.0 mph 46% 0.00 in 782.00 W/m2
13:14 38.2 °F 18.7 °F 30.14 in ESE 13.0 mph 18.0 mph 45% 0.00 in 784.00 W/m2
13:19 38.5 °F 21.0 °F 30.15 in ESE 14.0 mph 17.0 mph 49% 0.00 in 786.00 W/m2
13:24 39.0 °F 22.8 °F 30.14 in ENE 14.0 mph 17.0 mph 52% 0.00 in 789.00 W/m2
13:29 39.6 °F 22.9 °F 30.14 in East 17.0 mph 21.0 mph 51% 0.00 in 791.00 W/m2
13:34 39.0 °F 21.9 °F 30.14 in ESE 11.0 mph 21.0 mph 50% 0.00 in 791.00 W/m2
13:39 38.6 °F 21.5 °F 30.14 in East 17.0 mph 21.0 mph 50% 0.00 in 795.00 W/m2
13:44 38.9 °F 20.9 °F 30.14 in East 6.0 mph 21.0 mph 48% 0.00 in 784.00 W/m2
13:49 39.4 °F 20.3 °F 30.14 in ESE 12.0 mph 23.0 mph 46% 0.00 in 793.00 W/m2
13:54 39.5 °F 18.8 °F 30.14 in ESE 12.0 mph 23.0 mph 43% 0.00 in 796.00 W/m2
13:59 39.5 °F 18.8 °F 30.14 in ESE 16.0 mph 21.0 mph 43% 0.00 in 796.00 W/m2
14:04 38.9 °F 18.3 °F 30.14 in ESE 12.0 mph 21.0 mph 43% 0.00 in 798.00 W/m2
14:09 39.5 °F 20.4 °F 30.14 in ESE 14.0 mph 18.0 mph 46% 0.00 in 788.00 W/m2
14:14 39.9 °F 20.3 °F 30.13 in SE 9.0 mph 18.0 mph 45% 0.00 in 796.00 W/m2
14:19 40.6 °F 22.4 °F 30.13 in ESE 13.0 mph 17.0 mph 48% 0.00 in 796.00 W/m2
14:24 40.8 °F 22.6 °F 30.13 in ESE 7.0 mph 17.0 mph 48% 0.00 in 791.00 W/m2
14:29 40.5 °F 21.8 °F 30.12 in ENE 13.0 mph 24.0 mph 47% 0.00 in 788.00 W/m2
14:34 40.5 °F 22.3 °F 30.12 in East 8.0 mph 24.0 mph 48% 0.00 in 772.00 W/m2
14:39 40.3 °F 21.6 °F 30.12 in East 19.0 mph 22.0 mph 47% 0.00 in 772.00 W/m2
14:44 40.5 °F 22.3 °F 30.12 in East 16.0 mph 23.0 mph 48% 0.00 in 772.00 W/m2
14:49 40.4 °F 22.7 °F 30.12 in ESE 11.0 mph 23.0 mph 49% 0.00 in 763.00 W/m2
14:54 40.6 °F 23.4 °F 30.12 in SE 13.0 mph 21.0 mph 50% 0.00 in 766.00 W/m2
14:59 41.1 °F 23.4 °F 30.12 in East 16.0 mph 21.0 mph 49% 0.00 in 758.00 W/m2
15:04 41.0 °F 22.3 °F 30.11 in ENE 16.0 mph 23.0 mph 47% 0.00 in 745.00 W/m2
15:09 41.0 °F 23.8 °F 30.11 in ESE 10.0 mph 23.0 mph 50% 0.00 in 747.00 W/m2
15:14 41.1 °F 22.9 °F 30.11 in SE 10.0 mph 23.0 mph 48% 0.00 in 740.00 W/m2
15:19 41.3 °F 23.1 °F 30.11 in ESE 13.0 mph 23.0 mph 48% 0.00 in 731.00 W/m2
15:24 41.5 °F 23.7 °F 30.11 in East 15.0 mph 21.0 mph 49% 0.00 in 721.00 W/m2
15:29 41.5 °F 23.7 °F 30.11 in ESE 8.0 mph 21.0 mph 49% 0.00 in 717.00 W/m2
15:34 41.7 °F 23.9 °F 30.11 in SE 8.0 mph 18.0 mph 49% 0.00 in 715.00 W/m2
15:39 41.9 °F 24.1 °F 30.10 in East 16.0 mph 23.0 mph 49% 0.00 in 708.00 W/m2
15:44 42.3 °F 25.0 °F 30.11 in ESE 10.0 mph 23.0 mph 50% 0.00 in 700.00 W/m2
15:49 42.0 °F 24.2 °F 30.10 in East 18.0 mph 22.0 mph 49% 0.00 in 693.00 W/m2
15:54 41.8 °F 24.0 °F 30.10 in East 14.0 mph 23.0 mph 49% 0.00 in 684.00 W/m2
15:59 42.4 °F 25.1 °F 30.11 in East 6.0 mph 23.0 mph 50% 0.00 in 668.00 W/m2
16:04 42.4 °F 24.6 °F 30.10 in East 16.0 mph 23.0 mph 49% 0.00 in 656.00 W/m2
16:09 42.1 °F 24.3 °F 30.10 in East 11.0 mph 22.0 mph 49% 0.00 in 636.00 W/m2
16:14 42.5 °F 24.7 °F 30.10 in ESE 17.0 mph 23.0 mph 49% 0.00 in 621.00 W/m2
16:19 42.4 °F 24.6 °F 30.10 in SSE 13.0 mph 23.0 mph 49% 0.00 in 615.00 W/m2
16:24 42.3 °F 23.5 °F 30.10 in SE 14.0 mph 21.0 mph 47% 0.00 in 596.00 W/m2
16:29 42.5 °F 24.2 °F 30.10 in SE 17.0 mph 21.0 mph 48% 0.00 in 577.00 W/m2
16:34 42.4 °F 24.1 °F 30.10 in East 11.0 mph 19.0 mph 48% 0.00 in 587.00 W/m2
16:39 42.6 °F 24.8 °F 30.10 in ESE 7.0 mph 19.0 mph 49% 0.00 in 592.00 W/m2
16:44 42.7 °F 25.3 °F 30.10 in ESE 9.0 mph 19.0 mph 50% 0.00 in 566.00 W/m2
16:49 42.8 °F 25.4 °F 30.10 in ESE 13.0 mph 19.0 mph 50% 0.00 in 540.00 W/m2
16:54 43.0 °F 25.1 °F 30.10 in ESE 12.0 mph 19.0 mph 49% 0.00 in 543.00 W/m2
16:59 43.1 °F 26.2 °F 30.10 in SE 14.0 mph 22.0 mph 51% 0.00 in 504.00 W/m2
17:04 43.6 °F 26.2 °F 30.10 in ESE 11.0 mph 22.0 mph 50% 0.00 in 483.00 W/m2
17:09 43.6 °F 26.6 °F 30.10 in SSE 15.0 mph 17.0 mph 51% 0.00 in 482.00 W/m2
17:14 43.1 °F 26.2 °F 30.10 in ESE 17.0 mph 19.0 mph 51% 0.00 in 475.00 W/m2
17:19 43.0 °F 26.6 °F 30.09 in SE 16.0 mph 22.0 mph 52% 0.00 in 452.00 W/m2
17:24 42.9 °F 26.5 °F 30.09 in ESE 9.0 mph 22.0 mph 52% 0.00 in 431.00 W/m2
17:29 42.9 °F 26.5 °F 30.09 in SE 16.0 mph 24.0 mph 52% 0.00 in 441.00 W/m2
17:34 42.7 °F 26.7 °F 30.09 in SE 14.0 mph 24.0 mph 53% 0.00 in 427.00 W/m2
17:39 42.8 °F 26.8 °F 30.09 in SE 16.0 mph 24.0 mph 53% 0.00 in 408.00 W/m2
17:44 43.1 °F 27.1 °F 30.09 in ESE 14.0 mph 22.0 mph 53% 0.00 in 415.00 W/m2
17:49 43.0 °F 27.0 °F 30.09 in SE 15.0 mph 22.0 mph 53% 0.00 in 418.00 W/m2
17:54 42.8 °F 27.3 °F 30.09 in ESE 13.0 mph 22.0 mph 54% 0.00 in 369.00 W/m2
17:59 42.8 °F 26.8 °F 30.09 in ESE 14.0 mph 21.0 mph 53% 0.00 in 364.00 W/m2
18:04 42.8 °F 26.8 °F 30.09 in SE 10.0 mph 23.0 mph 53% 0.00 in 343.00 W/m2
18:09 42.6 °F 26.6 °F 30.09 in SE 7.0 mph 23.0 mph 53% 0.00 in 341.00 W/m2
18:14 42.8 °F 27.3 °F 30.09 in East 8.0 mph 18.0 mph 54% 0.00 in 306.00 W/m2
18:19 42.6 °F 27.1 °F 30.09 in East 15.0 mph 21.0 mph 54% 0.00 in 323.00 W/m2
18:24 42.5 °F 27.5 °F 30.09 in East 16.0 mph 21.0 mph 55% 0.00 in 299.00 W/m2
18:29 42.4 °F 27.8 °F 30.09 in SE 11.0 mph 21.0 mph 56% 0.00 in 299.00 W/m2
18:34 41.9 °F 26.9 °F 30.09 in SE 16.0 mph 21.0 mph 55% 0.00 in 243.00 W/m2
18:39 41.6 °F 27.9 °F 30.10 in East 11.0 mph 22.0 mph 58% 0.00 in 239.00 W/m2
18:44 41.2 °F 27.1 °F 30.09 in East 14.0 mph 22.0 mph 57% 0.00 in 171.00 W/m2
18:49 41.0 °F 27.8 °F 30.10 in SE 10.0 mph 21.0 mph 59% 0.00 in 156.00 W/m2
18:54 41.0 °F 26.9 °F 30.10 in SE 12.0 mph 21.0 mph 57% 0.00 in 156.00 W/m2
18:59 40.9 °F 26.8 °F 30.09 in SE 15.0 mph 21.0 mph 57% 0.00 in 141.00 W/m2
19:04 40.4 °F 26.4 °F 30.09 in SE 15.0 mph 19.0 mph 57% 0.00 in 135.00 W/m2
19:09 40.1 °F 26.5 °F 30.09 in ESE 19.0 mph 20.0 mph 58% 0.00 in 128.00 W/m2
19:14 40.0 °F 26.8 °F 30.09 in SE 14.0 mph 20.0 mph 59% 0.00 in 111.00 W/m2
19:19 39.7 °F 26.1 °F 30.10 in SE 13.0 mph 19.0 mph 58% 0.00 in 93.00 W/m2
19:24 39.4 °F 26.2 °F 30.09 in SE 13.0 mph 18.0 mph 59% 0.00 in 90.00 W/m2
19:29 39.1 °F 26.4 °F 30.09 in SE 11.0 mph 18.0 mph 60% 0.00 in 76.00 W/m2
19:34 38.8 °F 26.1 °F 30.10 in SE 11.0 mph 18.0 mph 60% 0.00 in 62.00 W/m2
19:39 38.4 °F 26.5 °F 30.10 in SE 9.0 mph 18.0 mph 62% 0.00 in 49.00 W/m2
19:44 38.0 °F 26.1 °F 30.10 in SE 9.0 mph 18.0 mph 62% 0.00 in 40.00 W/m2
19:49 37.6 °F 26.1 °F 30.10 in East 11.0 mph 18.0 mph 63% 0.00 in 30.00 W/m2
19:54 37.3 °F 25.8 °F 30.10 in East 15.0 mph 19.0 mph 63% 0.00 in 21.00 W/m2
19:59 36.9 °F 25.9 °F 30.10 in ESE 16.0 mph 20.0 mph 64% 0.00 in 16.00 W/m2
20:04 36.6 °F 25.9 °F 30.10 in SE 9.0 mph 21.0 mph 65% 0.00 in 11.00 W/m2
20:09 36.3 °F 25.3 °F 30.10 in SE 12.0 mph 21.0 mph 64% 0.00 in 5.00 W/m2
20:14 36.0 °F 25.4 °F 30.10 in SE 14.0 mph 22.0 mph 65% 0.00 in 0.00 W/m2
20:19 35.6 °F 25.4 °F 30.10 in SE 8.0 mph 22.0 mph 66% 0.00 in 0.00 W/m2
20:24 35.3 °F 25.1 °F 30.11 in SE 13.0 mph 19.0 mph 66% 0.00 in 0.00 W/m2
20:29 35.1 °F 24.9 °F 30.11 in SE 14.0 mph 20.0 mph 66% 0.00 in 0.00 W/m2
20:34 34.8 °F 24.6 °F 30.11 in SE 16.0 mph 22.0 mph 66% 0.00 in 0.00 W/m2
20:39 34.7 °F 24.5 °F 30.11 in ESE 11.0 mph 22.0 mph 66% 0.00 in 0.00 W/m2
20:44 34.3 °F 24.1 °F 30.11 in ESE 10.0 mph 18.0 mph 66% 0.00 in 0.00 W/m2
20:49 34.1 °F 24.3 °F 30.11 in ESE 13.0 mph 17.0 mph 67% 0.00 in 0.00 W/m2
20:54 33.9 °F 24.4 °F 30.11 in SE 10.0 mph 17.0 mph 68% 0.00 in 0.00 W/m2
20:59 33.8 °F 24.4 °F 30.11 in SE 12.0 mph 19.0 mph 68% 0.00 in 0.00 W/m2
21:04 33.7 °F 24.3 °F 30.12 in SE 12.0 mph 19.0 mph 68% 0.00 in 0.00 W/m2
21:09 33.6 °F 24.2 °F 30.12 in ESE 8.0 mph 17.0 mph 68% 0.00 in 0.00 W/m2
21:14 33.5 °F 24.1 °F 30.12 in SE 8.0 mph 15.0 mph 68% 0.00 in 0.00 W/m2
21:19 33.3 °F 24.2 °F 30.12 in SE 10.0 mph 14.0 mph 69% 0.00 in 0.00 W/m2
21:24 33.2 °F 24.1 °F 30.12 in SE 12.0 mph 16.0 mph 69% 0.00 in 0.00 W/m2
21:29 33.2 °F 24.1 °F 30.12 in East 13.0 mph 17.0 mph 69% 0.00 in 0.00 W/m2
21:34 33.0 °F 23.9 °F 30.12 in ESE 10.0 mph 17.0 mph 69% 0.00 in 0.00 W/m2
21:39 32.8 °F 24.1 °F 30.13 in ESE 15.0 mph 16.0 mph 70% 0.00 in 0.00 W/m2
21:44 32.7 °F 24.0 °F 30.13 in ESE 15.0 mph 17.0 mph 70% 0.00 in 0.00 W/m2
21:49 32.5 °F 24.1 °F 30.13 in ESE 11.0 mph 17.0 mph 71% 0.00 in 0.00 W/m2
21:54 32.3 °F 24.3 °F 30.13 in ESE 10.0 mph 15.0 mph 72% 0.00 in 0.00 W/m2
21:59 32.1 °F 24.1 °F 30.13 in ESE 10.0 mph 16.0 mph 72% 0.00 in 0.00 W/m2
22:04 32.0 °F 24.3 °F 30.13 in ESE 8.0 mph 16.0 mph 73% 0.00 in 0.00 W/m2
22:09 31.9 °F 24.2 °F 30.13 in ESE 13.0 mph 17.0 mph 73% 0.00 in 0.00 W/m2
22:14 31.8 °F 24.1 °F 30.13 in ESE 10.0 mph 17.0 mph 73% 0.00 in 0.00 W/m2
22:19 31.7 °F 24.0 °F 30.13 in SE 9.0 mph 17.0 mph 73% 0.00 in 0.00 W/m2
22:24 31.5 °F 23.8 °F 30.13 in SE 12.0 mph 16.0 mph 73% 0.00 in 0.00 W/m2
22:29 31.4 °F 23.7 °F 30.13 in East 9.0 mph 15.0 mph 73% 0.00 in 0.00 W/m2
22:34 31.3 °F 23.6 °F 30.13 in ESE 10.0 mph 15.0 mph 73% 0.00 in 0.00 W/m2
22:39 31.2 °F 23.5 °F 30.13 in East 11.0 mph 17.0 mph 73% 0.00 in 0.00 W/m2
22:44 31.2 °F 23.5 °F 30.13 in ESE 9.0 mph 17.0 mph 73% 0.00 in 0.00 W/m2
22:49 31.1 °F 23.8 °F 30.13 in ESE 9.0 mph 17.0 mph 74% 0.00 in 0.00 W/m2
22:54 31.0 °F 23.7 °F 30.13 in ESE 9.0 mph 17.0 mph 74% 0.00 in 0.00 W/m2
22:59 30.8 °F 23.5 °F 30.13 in ESE 13.0 mph 15.0 mph 74% 0.00 in 0.00 W/m2
23:04 30.8 °F 23.5 °F 30.13 in ESE 11.0 mph 16.0 mph 74% 0.00 in 0.00 W/m2
23:09 30.7 °F 23.4 °F 30.13 in ESE 13.0 mph 16.0 mph 74% 0.00 in 0.00 W/m2
23:14 30.7 °F 23.4 °F 30.13 in ESE 10.0 mph 16.0 mph 74% 0.00 in 0.00 W/m2
23:19 30.6 °F 23.3 °F 30.13 in ESE 11.0 mph 15.0 mph 74% 0.00 in 0.00 W/m2
23:24 30.5 °F 23.5 °F 30.13 in SE 10.0 mph 14.0 mph 75% 0.00 in 0.00 W/m2
23:29 30.5 °F 23.5 °F 30.13 in ESE 8.0 mph 15.0 mph 75% 0.00 in 0.00 W/m2
23:34 30.5 °F 23.5 °F 30.13 in SSE 6.0 mph 17.0 mph 75% 0.00 in 0.00 W/m2
23:39 30.5 °F 23.5 °F 30.13 in ESE 8.0 mph 17.0 mph 75% 0.00 in 0.00 W/m2
23:44 30.5 °F 23.5 °F 30.13 in ESE 9.0 mph 17.0 mph 75% 0.00 in 0.00 W/m2
23:49 30.5 °F 23.5 °F 30.13 in SE 12.0 mph 17.0 mph 75% 0.00 in 0.00 W/m2
23:54 30.5 °F 23.5 °F 30.12 in SE 13.0 mph 16.0 mph 75% 0.00 in 0.00 W/m2
23:59 30.4 °F 23.7 °F 30.12 in ESE 11.0 mph 16.0 mph 76% 0.00 in 0.00 W/m2
Bismarck, North Dakota, USA
Compliments of Weather Underground - 4 mb